Cookies

¿Aceptas nuestras cookies?

Aceptar
VAM | Vabird-VBD

Virtual Vabird! Aerolínea Virtual de habla hispana, desde 2011




 INFORMACIÓN METAR y TAF
METAR FOR WAOO
ADDS - METARS form results

(1210 UTC 24 October 2021)
Data provider http://aviationweather.gov/metar/data/
 
METAR text: WAOO 241200Z AUTO 21004KT 9999 FEW025 OVC065 28/25 Q1009
Conditions at: WAOO (SYAMSUDIN NOOR , ID) observed 1200 UTC 24 October 2021
Temperature: 28.0°C (82°F)
Dewpoint: 25.0°C (77°F) [RH = 84%]
Pressure (altimeter): 29.79 inches Hg (1009.0 mb)
Winds: from the SSW (210 degrees) at 5 MPH (4 knots; 2.1 m/s)
Visibility: 6 or more miles (10+ km)
Ceiling: 6500 feet AGL
Clouds: few clouds at 2500 feet AGL
overcast cloud deck at 6500 feet AGL
Weather: no significant weather observed at this time

METAR text: WAOO 241130Z AUTO 20004KT 9999 FEW025 SCT070 BKN200 28/25 Q1008
Conditions at: WAOO (SYAMSUDIN NOOR , ID) observed 1130 UTC 24 October 2021
Temperature: 28.0°C (82°F)
Dewpoint: 25.0°C (77°F) [RH = 84%]
Pressure (altimeter): 29.76 inches Hg (1008.0 mb)
Winds: from the SSW (200 degrees) at 5 MPH (4 knots; 2.1 m/s)
Visibility: 6 or more miles (10+ km)
Ceiling: 20000 feet AGL
Clouds: few clouds at 2500 feet AGL
scattered clouds at 7000 feet AGL
broken clouds at 20000 feet AGL
Weather: no significant weather observed at this time

Forecast for: WAOO (SYAMSUDIN NOOR , ID)
Text: TAF WAOO 241100Z 2412/2512 18006KT 9999 SCT017
Forecast period: 1200 UTC 24 October 2021 to 1200 UTC 25 October 2021
Forecast type: FROM: standard forecast or significant change
Winds: from the S (180 degrees) at 7 MPH (6 knots; 3.1 m/s)
Visibility: 6 or more miles (10+ km)
Ceiling: at least 12,000 feet AGL
Clouds: scattered clouds at 1700 feet AGL
Weather: no significant weather forecast for this period
Text: TEMPO 2421/2423 3000 BR
Forecast period: 2100 to 2300 UTC 24 October 2021
Forecast type: TEMPORARY: The following changes expected for less than half the time period
Visibility: 1.86 miles (2.99 km)
Ceiling: unknown
Clouds: missing
Weather: BR  (mist)

 MAPA DE AEROPUERTO

 INFORMACIÓN DE PISTA